createdAt,value
2022-10-09T00:40:45.967Z,99948.75
2022-10-09T00:44:00.583Z,99946.41
2022-10-09T00:46:45.511Z,99954.44
2022-10-09T00:49:28.327Z,99959.94
2022-10-09T00:52:02.100Z,99957.59
2022-10-09T00:54:33.886Z,99955.94
2022-10-09T00:57:02.283Z,99965.19
2022-10-09T00:59:30.426Z,99961.31
2022-10-09T01:01:58.059Z,99960.72
2022-10-09T01:04:25.894Z,99953.03
2022-10-09T01:06:58.910Z,99962.06
2022-10-09T01:09:41.058Z,99968.59
2022-10-09T01:12:20.245Z,99965.66
2022-10-09T01:15:07.786Z,99973.03
2022-10-09T01:18:11.902Z,99963.09
2022-10-09T01:20:51.131Z,99967.69
2022-10-09T01:23:38.300Z,99972.94
2022-10-09T01:26:37.670Z,99970.69
2022-10-09T01:29:11.765Z,99971.72
2022-10-09T01:31:48.599Z,99966.94
2022-10-09T01:34:19.397Z,99971.84
2022-10-09T01:36:47.953Z,99971.66
2022-10-09T01:39:23.722Z,99982.63
2022-10-09T01:41:54.342Z,99984.13
2022-10-09T01:44:31.461Z,99990.09
2022-10-09T01:46:59.930Z,99995.78
2022-10-09T01:49:49.771Z,100000.78
2022-10-09T01:52:42.669Z,100004.16
2022-10-09T01:55:51.497Z,100008.13
2022-10-09T01:58:32.805Z,100006.97
2022-10-09T02:01:11.115Z,100013.03
2022-10-09T02:03:43.202Z,100017.56
2022-10-09T02:06:14.755Z,100015.91
2022-10-09T02:08:47.045Z,100021.28
2022-10-09T02:11:15.170Z,100021.28
2022-10-09T02:13:45.012Z,100012.66
2022-10-09T02:16:37.757Z,100031.25
2022-10-09T02:19:17.224Z,100030.88
2022-10-09T02:21:59.798Z,100029.22
2022-10-09T02:24:28.644Z,100034.59
2022-10-09T02:26:57.898Z,100033.88
2022-10-09T02:29:25.758Z,100034.94
2022-10-09T02:31:53.112Z,100045.09
2022-10-09T02:34:21.115Z,100041.19
2022-10-09T02:36:49.073Z,100040.16
2022-10-09T02:39:16.901Z,100050.91
2022-10-09T02:41:44.079Z,100053.59
2022-10-09T02:44:11.442Z,100057.53
2022-10-09T02:46:39.035Z,100057.16
2022-10-09T02:49:07.902Z,100056.13
2022-10-09T02:51:35.150Z,100054.72
2022-10-09T02:54:04.881Z,100056.81
2022-10-09T02:56:37.949Z,100063.44
2022-10-09T02:59:07.017Z,100066.81
2022-10-09T03:01:35.302Z,100074.34
2022-10-09T03:04:04.210Z,100075.69
2022-10-09T03:06:32.087Z,100078.22
2022-10-09T03:08:59.655Z,100085.06
2022-10-09T03:11:27.524Z,100089.84
2022-10-09T03:13:58.363Z,100101.31
2022-10-09T03:16:26.800Z,100097.38
2022-10-09T03:23:53.721Z,100110.38
2022-10-09T03:26:25.689Z,100109.72
2022-10-09T03:28:54.774Z,100112.88
2022-10-09T03:34:13.172Z,100111.66
2022-10-09T03:36:42.253Z,100119.97
2022-10-09T03:39:11.561Z,100110.72
2022-10-09T03:41:38.966Z,100121.28
2022-10-09T03:44:06.893Z,100117.22
2022-10-09T03:46:37.354Z,100131.72
2022-10-09T03:54:17.489Z,100130.97
2022-10-09T04:06:02.308Z,100141.75
2022-10-09T05:28:00.371Z,100221.94
2022-10-09T05:30:27.818Z,100230.19
2022-10-09T05:32:58.942Z,100226.06
2022-10-09T05:35:37.219Z,100235.94
2022-10-09T05:38:07.191Z,100237.56
2022-10-09T05:40:34.277Z,100253.22
2022-10-09T05:43:02.574Z,100253.84
2022-10-09T05:45:31.460Z,100257.31
2022-10-09T05:48:08.804Z,100268.25
2022-10-09T05:56:14.430Z,100272.59
2022-10-09T05:58:43.734Z,100277.94
2022-10-09T06:01:11.391Z,100281.81
2022-10-09T06:03:39.022Z,100277.06
2022-10-09T06:06:08.979Z,100286.13
2022-10-09T06:13:51.149Z,100299.72
2022-10-09T06:16:26.724Z,100296.81
2022-10-09T06:19:08.104Z,100297.22
2022-10-09T06:21:35.966Z,100301.31
2022-10-09T06:34:30.786Z,100318.56
2022-10-09T06:37:23.412Z,100318.97
2022-10-09T06:39:52.827Z,100332.16
2022-10-09T06:42:46.293Z,100328.44
2022-10-09T06:45:17.657Z,100338.09
2022-10-09T06:47:45.086Z,100339.13
2022-10-09T06:50:12.163Z,100338.28
2022-10-09T06:52:39.698Z,100346.53
2022-10-09T06:55:13.433Z,100341.97
2022-10-09T07:17:47.452Z,100349.41
2022-10-09T07:20:18.272Z,100352.28
2022-10-09T07:22:45.600Z,100355.56
2022-10-09T07:25:12.752Z,100355.63
2022-10-09T07:33:38.731Z,100362.94
2022-10-09T07:37:30.104Z,100375.25
2022-10-09T07:45:22.362Z,100382.66
2022-10-09T07:47:50.004Z,100378.09
2022-10-09T07:50:17.077Z,100379.69
2022-10-09T08:03:22.286Z,100369.94
2022-10-09T08:05:56.666Z,100382.38
2022-10-09T08:08:23.871Z,100388.66
2022-10-09T08:10:51.682Z,100381.53
2022-10-09T08:13:19.049Z,100391.38
2022-10-09T08:15:46.204Z,100389.00
2022-10-09T08:18:14.025Z,100396.22
2022-10-09T08:25:18.717Z,100397.06
2022-10-09T08:36:57.956Z,100384.81
2022-10-09T08:39:25.639Z,100392.38
2022-10-09T08:41:57.654Z,100399.84
2022-10-09T08:44:49.691Z,100395.19
2022-10-09T08:47:29.991Z,100404.38
2022-10-09T08:50:27.642Z,100394.19
2022-10-09T08:53:08.512Z,100387.16
2022-10-09T08:55:59.428Z,100371.25
2022-10-09T08:58:34.480Z,100386.19
2022-10-09T09:01:43.334Z,100383.97
2022-10-09T09:04:59.328Z,100390.53
2022-10-09T09:08:48.507Z,100395.00
2022-10-09T09:11:44.046Z,100394.03
2022-10-09T09:15:25.440Z,100401.44
2022-10-09T09:18:37.639Z,100389.38
2022-10-09T09:21:42.570Z,100392.06
2022-10-09T09:29:15.814Z,100384.91
2022-10-09T09:31:49.574Z,100390.75
2022-10-09T09:34:42.053Z,100401.00
2022-10-09T09:37:13.339Z,100397.22
2022-10-09T09:42:31.158Z,100395.13
2022-10-09T09:45:05.650Z,100389.75
2022-10-09T09:47:59.902Z,100383.47
2022-10-09T09:50:50.412Z,100386.53
2022-10-09T09:53:31.781Z,100387.56
2022-10-09T09:56:20.137Z,100390.53
2022-10-09T09:58:55.285Z,100382.44
2022-10-09T10:01:29.550Z,100376.22
2022-10-09T10:04:01.242Z,100379.84
2022-10-09T10:06:43.526Z,100381.00
2022-10-09T10:09:16.818Z,100379.25
2022-10-09T10:11:58.622Z,100369.47
2022-10-09T10:14:27.418Z,100365.03
2022-10-09T10:16:58.902Z,100360.59
2022-10-09T10:19:34.992Z,100365.16
2022-10-09T10:22:25.000Z,100373.44
2022-10-09T10:33:29.611Z,100363.78
2022-10-09T10:36:01.428Z,100366.84
2022-10-09T10:39:02.295Z,100367.69
2022-10-09T10:41:45.155Z,100359.41
2022-10-09T10:52:32.560Z,100366.75
2022-10-09T10:55:54.823Z,100358.47
2022-10-09T10:59:11.780Z,100367.56
2022-10-09T11:02:02.750Z,100369.78
2022-10-09T11:04:55.401Z,100364.34
2022-10-09T11:07:33.815Z,100365.50
2022-10-09T11:12:47.752Z,100365.84
2022-10-09T11:14:25.757Z,100360.16
2022-10-09T11:17:20.121Z,100357.72
2022-10-09T11:24:48.781Z,100355.22
2022-10-09T11:27:48.829Z,100347.75
2022-10-09T11:30:18.389Z,100350.69
2022-10-09T11:33:38.469Z,100340.47
2022-10-09T11:39:33.150Z,100330.94
2022-10-09T11:52:28.946Z,100332.06
2022-10-09T12:01:05.073Z,100326.00
2022-10-09T12:03:39.482Z,100320.84
2022-10-09T12:06:14.746Z,100318.22
2022-10-09T12:09:19.495Z,100313.91
2022-10-09T12:12:07.314Z,100305.84
2022-10-09T12:14:38.845Z,100310.78
2022-10-09T12:17:51.713Z,100312.22
2022-10-09T12:26:08.776Z,100299.44
2022-10-09T12:28:51.281Z,100295.97
2022-10-09T12:31:29.720Z,100300.38
2022-10-09T12:34:17.548Z,100298.19
2022-10-09T12:36:45.458Z,100302.78
2022-10-09T12:43:55.734Z,100295.72
2022-10-09T12:46:49.955Z,100289.53
2022-10-09T12:54:03.384Z,100289.69
2022-10-09T12:56:35.827Z,100285.91
2022-10-09T12:59:09.438Z,100285.59
2022-10-09T13:06:27.111Z,100292.41
2022-10-09T13:09:03.197Z,100289.69
2022-10-09T13:12:26.284Z,100283.72
2022-10-09T13:15:41.503Z,100290.19
2022-10-09T13:20:07.238Z,100288.84
2022-10-09T13:22:35.945Z,100286.41
2022-10-09T13:25:06.572Z,100289.03
